Time;durP1;ratioP1;P1;durP2;ratioP2;P2;SDS_P1;SDS_P2;PMS_P1;PMS_P2;Temp;Humidity;BMP_temperature;BMP_pressure;BME280_temperature;BME280_humidity;BME280_pressure;Samples;Min_cycle;Max_cycle;Signal;HPM_P1;HPM_P2
2022/03/21 00:01:07;;;;;;;0.60;0.30;;;10.80;99.90;;;;;;4972657;28;20513;-75
2022/03/21 00:03:35;;;;;;;0.60;0.10;;;10.70;99.90;;;;;;4961792;28;20507;-75
2022/03/21 00:06:03;;;;;;;0.60;0.20;;;10.70;99.90;;;;;;4953221;29;20977;-77
2022/03/21 00:08:31;;;;;;;0.70;0.33;;;10.80;99.90;;;;;;4953090;29;20461;-75
2022/03/21 00:10:59;;;;;;;0.60;0.20;;;10.90;99.90;;;;;;4952496;28;20470;-75
2022/03/21 00:13:27;;;;;;;10.10;9.23;;;;;;;;;;4953404;28;20973;-75
2022/03/21 00:15:56;;;;;;;1.70;1.60;;;10.90;99.90;;;;;;4952537;29;20450;-75
2022/03/21 00:18:26;;;;;;;0.60;0.10;;;10.80;99.90;;;;;;4952987;29;20451;-76
2022/03/21 00:20:55;;;;;;;0.60;0.10;;;10.80;99.90;;;;;;4953157;29;20574;-75
2022/03/21 00:23:24;;;;;;;15.87;11.97;;;10.80;99.90;;;;;;4952682;29;20451;-75
2022/03/21 00:25:53;;;;;;;0.87;0.87;;;10.80;99.90;;;;;;4959109;28;20865;-75
2022/03/21 00:28:20;;;;;;;0.60;0.10;;;10.70;99.90;;;;;;4972112;28;20453;-75
2022/03/21 00:30:48;;;;;;;0.60;0.10;;;10.50;99.90;;;;;;4972492;28;20822;-75
2022/03/21 00:33:17;;;;;;;0.60;0.10;;;10.50;99.90;;;;;;4966158;28;20482;-75
2022/03/21 00:35:48;;;;;;;0.60;0.10;;;10.60;99.90;;;;;;4953522;29;20474;-75
2022/03/21 00:38:18;;;;;;;0.60;0.10;;;10.50;99.90;;;;;;4953200;29;21032;-75
2022/03/21 00:40:46;;;;;;;0.60;0.10;;;10.50;99.90;;;;;;4956002;29;20491;-75
2022/03/21 00:43:17;;;;;;;0.60;0.10;;;10.50;99.90;;;;;;4955166;29;20447;-74
2022/03/21 00:45:45;;;;;;;0.60;0.10;;;10.50;99.90;;;;;;4953060;29;20470;-74
2022/03/21 00:48:13;;;;;;;0.60;0.10;;;10.40;99.90;;;;;;4958493;29;20949;-74
2022/03/21 00:50:41;;;;;;;0.60;0.10;;;10.40;99.90;;;;;;4960249;29;20556;-74
2022/03/21 00:53:10;;;;;;;0.60;0.10;;;10.40;99.90;;;;;;4962306;29;20435;-74
2022/03/21 00:55:38;;;;;;;0.60;0.10;;;10.50;99.90;;;;;;4960880;29;20446;-76
2022/03/21 00:58:06;;;;;;;0.60;0.10;;;10.40;99.90;;;;;;4961390;28;20457;-75
2022/03/21 01:00:34;;;;;;;0.60;0.20;;;10.40;99.90;;;;;;4954963;29;20499;-74
2022/03/21 01:03:03;;;;;;;0.60;0.10;;;10.40;99.90;;;;;;4956601;29;20546;-74
2022/03/21 01:05:32;;;;;;;0.60;0.10;;;10.20;99.90;;;;;;4962025;29;20453;-74
2022/03/21 01:08:02;;;;;;;0.60;0.20;;;10.10;99.90;;;;;;4954313;29;20451;-74
2022/03/21 01:10:32;;;;;;;0.60;0.10;;;10.00;99.90;;;;;;4955163;28;20495;-74
2022/03/21 01:13:00;;;;;;;0.60;0.10;;;10.00;99.90;;;;;;4957456;29;20447;-75
2022/03/21 01:15:29;;;;;;;0.60;0.10;;;9.90;99.90;;;;;;4956418;28;20454;-74
2022/03/21 01:17:58;;;;;;;3.17;1.27;;;9.80;99.90;;;;;;4956511;29;20804;-74
2022/03/21 01:20:27;;;;;;;0.60;0.10;;;9.80;99.90;;;;;;4956170;29;20446;-74
2022/03/21 01:22:55;;;;;;;0.60;0.10;;;9.70;99.90;;;;;;4955908;29;20450;-74
2022/03/21 01:25:23;;;;;;;0.60;0.10;;;9.70;99.90;;;;;;4963593;28;20449;-74
2022/03/21 01:27:52;;;;;;;0.60;0.10;;;9.70;99.90;;;;;;4966362;28;20481;-74
2022/03/21 01:30:21;;;;;;;0.60;0.10;;;9.70;99.90;;;;;;4965996;28;20963;-75
2022/03/21 01:32:49;;;;;;;0.60;0.10;;;9.70;99.90;;;;;;4975073;28;20471;-74
2022/03/21 01:35:18;;;;;;;0.60;0.10;;;9.70;99.90;;;;;;4973822;28;20465;-74
2022/03/21 01:37:47;;;;;;;0.60;0.10;;;9.70;99.90;;;;;;4976245;28;20461;-74
2022/03/21 01:40:16;;;;;;;0.60;0.10;;;9.70;99.90;;;;;;4975663;28;21007;-74
2022/03/21 01:42:46;;;;;;;0.60;0.10;;;;;;;;;;4975276;28;20486;-73
2022/03/21 01:45:17;;;;;;;0.60;0.10;;;9.80;99.90;;;;;;4975296;28;20468;-75
2022/03/21 01:47:46;;;;;;;1.73;0.87;;;9.80;99.90;;;;;;4975248;28;20817;-75
2022/03/21 01:50:16;;;;;;;1.13;0.83;;;9.70;99.90;;;;;;4974945;28;20536;-74
2022/03/21 01:52:44;;;;;;;5.07;1.77;;;9.70;99.90;;;;;;4956756;28;20438;-74
2022/03/21 01:58:02;;;;;;;0.60;0.10;;;9.70;99.90;;;;;;4951180;29;20460;-75
2022/03/21 02:00:31;;;;;;;0.60;0.10;;;9.70;99.90;;;;;;4958163;29;21251;-75
2022/03/21 02:02:59;;;;;;;0.70;0.40;;;9.70;99.90;;;;;;4959533;29;20497;-74
2022/03/21 02:05:28;;;;;;;0.60;0.10;;;9.70;99.90;;;;;;4958701;28;20462;-75
2022/03/21 02:07:56;;;;;;;0.60;0.10;;;9.60;99.90;;;;;;4967553;28;20461;-75
2022/03/21 02:10:24;;;;;;;1.00;0.60;;;9.60;99.90;;;;;;4974214;28;20453;-74
2022/03/21 02:12:52;;;;;;;0.60;0.10;;;9.60;99.90;;;;;;4974597;28;20446;-74
2022/03/21 02:15:20;;;;;;;0.60;0.10;;;9.60;99.90;;;;;;4974334;28;20449;-74
2022/03/21 02:17:59;;;;;;;1.63;1.53;;;9.50;99.90;;;;;;4974425;28;20452;-74
2022/03/21 02:20:30;;;;;;;0.60;0.10;;;9.50;99.90;;;;;;4957156;28;20461;-74
2022/03/21 02:23:07;;;;;;;0.60;0.10;;;9.50;99.90;;;;;;4956654;29;20489;-74
2022/03/21 02:25:37;;;;;;;0.60;0.10;;;9.40;99.90;;;;;;4965841;28;20463;-74
2022/03/21 02:28:08;;;;;;;0.60;0.10;;;9.40;99.90;;;;;;4973717;28;20464;-75
2022/03/21 02:30:39;;;;;;;0.60;0.10;;;9.40;99.90;;;;;;4974244;28;20492;-74
2022/03/21 02:33:08;;;;;;;0.60;0.10;;;9.40;99.90;;;;;;4974091;28;20604;-74
2022/03/21 02:35:37;;;;;;;0.60;0.10;;;9.40;99.90;;;;;;4973576;28;20904;-74
2022/03/21 02:38:07;;;;;;;0.60;0.10;;;9.40;99.90;;;;;;4973548;28;20445;-75
2022/03/21 02:40:36;;;;;;;0.60;0.10;;;9.30;99.90;;;;;;4973618;28;20461;-75
2022/03/21 02:43:04;;;;;;;0.63;0.30;;;9.30;99.90;;;;;;4973266;28;20852;-75
2022/03/21 02:45:32;;;;;;;0.60;0.10;;;9.20;99.90;;;;;;4960785;28;20932;-75
2022/03/21 02:48:00;;;;;;;7.90;4.60;;;9.20;99.90;;;;;;4954598;29;20457;-75
2022/03/21 02:50:34;;;;;;;1.07;0.97;;;9.10;99.90;;;;;;4954385;29;20480;-75
2022/03/21 02:53:04;;;;;;;0.60;0.10;;;9.10;99.90;;;;;;4954557;29;20466;-74
2022/03/21 02:55:33;;;;;;;0.60;0.10;;;9.10;99.90;;;;;;4954446;29;20446;-75
2022/03/21 02:58:03;;;;;;;0.60;0.10;;;9.00;99.90;;;;;;4953899;29;20457;-74
2022/03/21 03:00:31;;;;;;;0.60;0.10;;;9.00;99.90;;;;;;4954485;29;20553;-75
2022/03/21 03:02:59;;;;;;;0.60;0.10;;;9.00;99.90;;;;;;4954077;29;20582;-75
2022/03/21 03:05:27;;;;;;;0.60;0.10;;;9.00;99.90;;;;;;4954343;29;20453;-75
2022/03/21 03:07:54;;;;;;;0.60;0.10;;;8.90;99.90;;;;;;4954020;29;20941;-74
2022/03/21 03:10:23;;;;;;;0.60;0.10;;;8.90;99.90;;;;;;4954286;29;20824;-73
2022/03/21 03:12:50;;;;;;;0.60;0.10;;;8.90;99.90;;;;;;4962949;28;20458;-73
2022/03/21 03:15:20;;;;;;;0.60;0.10;;;8.80;99.90;;;;;;4961806;28;20549;-73
2022/03/21 03:17:47;;;;;;;0.60;0.10;;;8.80;99.90;;;;;;4954655;29;20450;-73
2022/03/21 03:20:16;;;;;;;0.60;0.10;;;8.80;99.90;;;;;;4953964;29;20446;-74
2022/03/21 03:22:44;;;;;;;0.60;0.10;;;8.70;99.90;;;;;;4954208;29;20488;-75
2022/03/21 03:25:13;;;;;;;0.60;0.10;;;8.70;99.90;;;;;;4959963;28;20444;-75
2022/03/21 03:27:40;;;;;;;0.60;0.10;;;8.70;99.90;;;;;;4966699;28;20980;-75
2022/03/21 03:30:09;;;;;;;0.60;0.10;;;8.70;99.90;;;;;;4953869;28;20789;-75
2022/03/21 03:32:39;;;;;;;0.60;0.10;;;8.70;99.90;;;;;;4960325;28;20528;-74
2022/03/21 03:35:08;;;;;;;0.60;0.10;;;8.70;99.90;;;;;;4972295;28;20484;-74
2022/03/21 03:37:36;;;;;;;0.60;0.10;;;8.60;99.90;;;;;;4955573;28;20949;-74
2022/03/21 03:40:05;;;;;;;0.60;0.10;;;8.60;99.90;;;;;;4953978;29;20546;-75
2022/03/21 03:42:34;;;;;;;0.60;0.10;;;8.50;99.90;;;;;;4965220;28;20563;-75
2022/03/21 03:45:01;;;;;;;0.60;0.10;;;8.50;99.90;;;;;;4972405;28;20955;-75
2022/03/21 03:47:29;;;;;;;0.60;0.10;;;8.50;99.90;;;;;;4972291;28;20815;-75
2022/03/21 03:49:59;;;;;;;0.60;0.10;;;8.50;99.90;;;;;;4972239;28;20557;-75
2022/03/21 03:52:27;;;;;;;0.60;0.10;;;8.40;99.90;;;;;;4972346;28;20481;-75
2022/03/21 03:54:55;;;;;;;0.60;0.10;;;8.40;99.90;;;;;;4972696;28;20524;-75
2022/03/21 03:57:23;;;;;;;0.60;0.10;;;8.40;99.90;;;;;;4972225;28;20476;-75
2022/03/21 03:59:50;;;;;;;0.60;0.10;;;8.40;99.90;;;;;;4972956;28;20449;-75
2022/03/21 04:02:18;;;;;;;0.60;0.10;;;8.40;99.90;;;;;;4972252;28;20481;-75
2022/03/21 04:04:46;;;;;;;0.60;0.20;;;8.40;99.90;;;;;;4972752;28;20503;-75
2022/03/21 04:07:15;;;;;;;0.60;0.10;;;8.40;99.90;;;;;;4972006;28;20469;-74
2022/03/21 04:09:43;;;;;;;0.60;0.10;;;8.40;99.90;;;;;;4973620;28;20544;-74
2022/03/21 04:12:11;;;;;;;0.60;0.10;;;8.40;99.90;;;;;;4974434;28;20499;-74
2022/03/21 04:14:39;;;;;;;0.60;0.10;;;8.30;99.90;;;;;;4974929;28;20452;-73
2022/03/21 04:17:07;;;;;;;0.60;0.10;;;8.30;99.90;;;;;;4973738;28;20459;-75
2022/03/21 04:19:34;;;;;;;0.60;0.10;;;8.30;99.90;;;;;;4973452;28;21046;-74
2022/03/21 04:22:02;;;;;;;1.17;1.17;;;8.40;99.90;;;;;;4954420;28;20479;-74
2022/03/21 04:24:32;;;;;;;0.60;0.10;;;8.30;99.90;;;;;;4953479;28;20457;-74
2022/03/21 04:27:00;;;;;;;0.60;0.10;;;8.30;99.90;;;;;;5011904;23;20491;-71
2022/03/21 04:29:29;;;;;;;0.60;0.10;;;8.30;99.90;;;;;;5010252;28;20456;-69
2022/03/21 04:31:57;;;;;;;0.60;0.10;;;8.20;99.90;;;;;;5011608;28;20513;-70
2022/03/21 04:34:25;;;;;;;0.60;0.10;;;8.20;99.90;;;;;;5012716;28;20450;-70
2022/03/21 04:36:53;;;;;;;0.60;0.10;;;8.20;99.90;;;;;;5015869;28;20543;-70
2022/03/21 04:39:20;;;;;;;0.60;0.10;;;8.20;99.90;;;;;;4994651;28;20451;-70
2022/03/21 04:41:50;;;;;;;0.60;0.10;;;8.20;99.90;;;;;;4973745;28;20452;-69
2022/03/21 04:44:23;;;;;;;0.60;0.10;;;8.20;99.90;;;;;;4974336;28;20479;-71
2022/03/21 04:46:54;;;;;;;0.60;0.10;;;8.10;99.90;;;;;;4976552;28;20579;-70
2022/03/21 04:49:22;;;;;;;0.60;0.13;;;8.10;99.90;;;;;;4991404;28;20569;-71
2022/03/21 04:51:49;;;;;;;0.60;0.10;;;8.10;99.90;;;;;;4991750;28;20479;-71
2022/03/21 04:54:17;;;;;;;0.60;0.10;;;8.00;99.90;;;;;;4995940;28;20478;-70
2022/03/21 04:56:45;;;;;;;0.60;0.10;;;7.90;99.90;;;;;;5006438;28;20471;-71
2022/03/21 04:59:14;;;;;;;0.60;0.10;;;7.90;99.90;;;;;;4997448;28;20480;-70
2022/03/21 05:01:42;;;;;;;0.60;0.10;;;7.90;99.90;;;;;;4994675;28;20452;-71
2022/03/21 05:04:10;;;;;;;0.80;0.47;;;7.90;99.90;;;;;;4995127;28;20562;-70
2022/03/21 05:06:39;;;;;;;0.60;0.10;;;7.90;99.90;;;;;;4995317;28;20466;-70
2022/03/21 05:09:07;;;;;;;0.60;0.10;;;7.80;99.90;;;;;;4995064;28;20452;-72
2022/03/21 05:11:35;;;;;;;0.60;0.10;;;7.80;99.90;;;;;;4994396;28;20459;-70
2022/03/21 05:14:04;;;;;;;0.60;0.10;;;7.80;99.90;;;;;;4995460;28;20451;-73
2022/03/21 05:16:33;;;;;;;0.60;0.30;;;7.80;99.90;;;;;;4991129;28;20592;-72
2022/03/21 05:19:01;;;;;;;0.60;0.10;;;7.80;99.90;;;;;;4994423;28;20440;-72
2022/03/21 05:21:29;;;;;;;0.60;0.10;;;7.70;99.90;;;;;;4994845;28;20456;-72
2022/03/21 05:32:18;;;;;;;0.60;0.10;;;7.60;99.90;;;;;;4989280;28;20466;-71
2022/03/21 05:37:31;;;;;;;0.60;0.10;;;7.50;99.90;;;;;;4975713;28;20474;-72
2022/03/21 05:42:44;;;;;;;0.60;0.10;;;7.50;99.90;;;;;;4975383;28;20447;-71
2022/03/21 05:45:19;;;;;;;0.60;0.10;;;7.50;99.90;;;;;;4986939;28;20479;-70
2022/03/21 05:50:38;;;;;;;0.60;0.10;;;7.50;99.90;;;;;;4994861;28;20543;-71
2022/03/21 05:53:08;;;;;;;0.60;0.10;;;7.50;99.90;;;;;;4995255;28;20959;-72
2022/03/21 05:55:36;;;;;;;0.60;0.10;;;7.50;99.90;;;;;;4992451;28;20546;-71
2022/03/21 05:58:04;;;;;;;0.60;0.10;;;7.50;99.90;;;;;;4989673;28;20474;-71
2022/03/21 06:00:35;;;;;;;0.60;0.30;;;7.50;99.90;;;;;;4974763;28;20964;-72
2022/03/21 06:03:04;;;;;;;0.60;0.10;;;7.50;99.90;;;;;;4974469;28;20969;-70
2022/03/21 06:05:32;;;;;;;3.50;3.00;;;7.50;99.90;;;;;;4975078;28;20873;-71
2022/03/21 06:08:01;;;;;;;0.60;0.10;;;;;;;;;;4975237;28;20466;-71
2022/03/21 06:10:29;;;;;;;0.60;0.10;;;7.50;99.90;;;;;;4974779;28;20849;-72
2022/03/21 06:12:57;;;;;;;0.60;0.17;;;7.50;99.90;;;;;;4985965;28;20483;-71
2022/03/21 06:15:26;;;;;;;0.60;0.17;;;7.50;99.90;;;;;;4994404;28;20443;-72
2022/03/21 06:17:59;;;;;;;0.60;0.10;;;7.50;99.90;;;;;;4994038;28;20487;-72
2022/03/21 06:20:28;;;;;;;0.60;0.10;;;7.50;99.90;;;;;;4990407;28;20456;-71
2022/03/21 06:22:57;;;;;;;0.60;0.20;;;7.50;99.90;;;;;;4975620;28;20458;-72
2022/03/21 06:25:25;;;;;;;0.60;0.10;;;7.60;99.90;;;;;;4997495;28;20957;-70
2022/03/21 06:27:53;;;;;;;0.60;0.10;;;7.60;99.90;;;;;;4993223;28;20491;-72
2022/03/21 06:30:21;;;;;;;0.60;0.10;;;7.70;99.90;;;;;;4993781;28;20968;-71
2022/03/21 06:32:49;;;;;;;0.50;0.10;;;7.70;99.90;;;;;;4993859;28;20974;-72
2022/03/21 06:35:17;;;;;;;0.70;0.40;;;7.70;99.90;;;;;;4988743;28;20569;-72
2022/03/21 06:37:46;;;;;;;0.60;0.10;;;7.70;99.90;;;;;;4994412;28;20468;-72
2022/03/21 06:40:20;;;;;;;0.60;0.10;;;7.80;99.90;;;;;;4994087;28;20439;-72
2022/03/21 06:42:48;;;;;;;5.57;5.00;;;7.80;99.90;;;;;;4993545;28;20447;-71
2022/03/21 06:45:16;;;;;;;0.60;0.10;;;7.80;99.90;;;;;;4975006;28;20492;-70
2022/03/21 06:47:44;;;;;;;0.60;0.10;;;7.90;99.90;;;;;;4997518;28;20486;-68
2022/03/21 06:50:12;;;;;;;0.60;0.10;;;7.90;99.90;;;;;;4997243;28;21025;-72
2022/03/21 06:52:40;;;;;;;0.60;0.10;;;7.90;99.90;;;;;;4993077;28;20502;-71
2022/03/21 06:55:12;;;;;;;0.60;0.10;;;8.00;99.90;;;;;;4989896;28;20507;-71
2022/03/21 06:57:40;;;;;;;0.57;0.10;;;8.00;99.90;;;;;;4993553;28;20492;-71
2022/03/21 07:00:09;;;;;;;0.60;0.10;;;8.00;99.90;;;;;;4993924;28;20487;-71
2022/03/21 07:02:38;;;;;;;0.60;0.10;;;8.00;99.90;;;;;;4984419;28;20506;-70
2022/03/21 07:05:08;;;;;;;0.70;0.40;;;8.30;99.90;;;;;;5001616;28;20522;-71
2022/03/21 07:07:36;;;;;;;29.83;26.83;;;8.30;99.90;;;;;;4993172;28;20466;-71
2022/03/21 07:10:06;;;;;;;0.60;0.17;;;8.30;99.90;;;;;;4976950;28;20452;-69
2022/03/21 07:12:35;;;;;;;0.70;0.50;;;8.30;99.90;;;;;;4981587;28;20552;-71
2022/03/21 07:15:04;;;;;;;0.60;0.10;;;8.40;99.90;;;;;;4993206;28;20447;-71
2022/03/21 07:17:32;;;;;;;0.60;0.10;;;8.40;99.90;;;;;;4992932;28;20472;-71
2022/03/21 07:20:00;;;;;;;0.60;0.20;;;8.40;99.90;;;;;;4991746;28;20467;-71
2022/03/21 07:22:29;;;;;;;0.60;0.10;;;8.50;99.90;;;;;;4988366;28;21013;-70
2022/03/21 07:24:56;;;;;;;0.60;0.10;;;8.50;99.90;;;;;;4991221;28;20495;-71
2022/03/21 07:27:26;;;;;;;0.60;0.10;;;8.60;99.90;;;;;;4987961;28;20529;-72
2022/03/21 07:29:55;;;;;;;0.60;0.10;;;8.60;99.90;;;;;;4988521;28;20459;-71
2022/03/21 07:32:23;;;;;;;0.60;0.10;;;8.60;99.90;;;;;;4992195;28;20444;-70
2022/03/21 07:34:51;;;;;;;0.60;0.10;;;8.70;99.90;;;;;;4988554;28;20456;-72
2022/03/21 07:37:21;;;;;;;0.60;0.10;;;8.70;99.90;;;;;;4983383;28;20550;-72
2022/03/21 07:39:49;;;;;;;0.60;0.10;;;8.80;99.90;;;;;;4983800;28;20468;-72
2022/03/21 07:42:19;;;;;;;0.60;0.10;;;8.80;99.90;;;;;;4976053;28;20454;-72
2022/03/21 07:47:37;;;;;;;0.60;0.20;;;8.90;99.90;;;;;;4972486;28;20488;-71
2022/03/21 07:50:06;;;;;;;0.60;0.10;;;8.90;99.90;;;;;;4972970;28;20446;-71
2022/03/21 07:52:34;;;;;;;0.60;0.10;;;8.90;99.90;;;;;;4972889;28;20967;-71
2022/03/21 07:55:03;;;;;;;0.60;0.10;;;8.90;99.90;;;;;;4972856;28;20441;-72
2022/03/21 07:57:33;;;;;;;0.60;0.10;;;9.10;99.90;;;;;;4973723;28;20477;-74
2022/03/21 08:00:01;;;;;;;0.60;0.10;;;9.10;99.90;;;;;;4973063;28;20446;-74
2022/03/21 08:02:29;;;;;;;0.60;0.10;;;9.20;99.90;;;;;;4972324;28;20437;-73
2022/03/21 08:05:01;;;;;;;0.60;0.13;;;9.30;99.90;;;;;;4976284;28;20520;-72
2022/03/21 08:07:29;;;;;;;0.67;0.40;;;9.30;99.90;;;;;;4984219;28;20995;-73
2022/03/21 08:09:57;;;;;;;0.60;0.10;;;;;;;;;;4988764;28;20469;-72
2022/03/21 08:12:25;;;;;;;0.60;0.10;;;9.40;99.90;;;;;;4990671;28;20453;-75
2022/03/21 08:14:53;;;;;;;0.60;0.10;;;9.50;99.90;;;;;;4991417;28;20452;-72
2022/03/21 08:17:21;;;;;;;0.60;0.10;;;9.50;99.90;;;;;;4991710;28;20466;-72
2022/03/21 08:19:49;;;;;;;0.60;0.10;;;9.60;99.90;;;;;;4992057;28;20445;-73
2022/03/21 08:22:19;;;;;;;1.07;0.83;;;9.60;99.90;;;;;;4992205;28;20452;-72
2022/03/21 08:24:53;;;;;;;0.60;0.10;;;9.70;99.90;;;;;;4986600;28;20484;-74
2022/03/21 08:27:22;;;;;;;0.60;0.10;;;9.70;99.90;;;;;;4980895;28;20477;-73
2022/03/21 08:29:49;;;;;;;0.60;0.50;;;9.80;99.90;;;;;;4972378;28;20529;-72
2022/03/21 08:32:17;;;;;;;0.60;0.13;;;9.90;99.90;;;;;;4973917;28;21054;-73
2022/03/21 08:34:45;;;;;;;0.60;0.20;;;9.90;99.90;;;;;;4973238;28;20478;-74
2022/03/21 08:37:13;;;;;;;0.60;0.10;;;9.90;99.90;;;;;;4973200;28;20844;-73
2022/03/21 08:39:42;;;;;;;0.60;0.13;;;9.90;99.90;;;;;;4982860;28;20446;-73
2022/03/21 08:42:10;;;;;;;0.60;0.40;;;10.00;99.90;;;;;;4987508;28;20463;-74
2022/03/21 08:44:39;;;;;;;0.60;0.10;;;10.00;99.90;;;;;;4987012;28;20485;-74
2022/03/21 08:47:07;;;;;;;0.60;0.10;;;10.10;99.90;;;;;;4984168;28;20529;-74
2022/03/21 08:49:37;;;;;;;0.60;0.10;;;10.10;99.90;;;;;;4991733;28;20815;-73
2022/03/21 08:52:06;;;;;;;0.60;0.10;;;10.20;99.90;;;;;;4985936;28;20544;-72
2022/03/21 08:54:34;;;;;;;0.70;0.30;;;10.30;99.90;;;;;;4988291;28;20451;-75
2022/03/21 08:57:04;;;;;;;0.60;0.10;;;10.30;99.90;;;;;;4971398;28;20480;-74
2022/03/21 08:59:33;;;;;;;0.60;0.10;;;10.30;99.90;;;;;;4972014;28;20868;-73
2022/03/21 09:02:01;;;;;;;0.60;0.20;;;10.40;99.90;;;;;;4983617;28;20448;-73
2022/03/21 09:04:29;;;;;;;1.20;1.10;;;10.40;99.90;;;;;;4979114;28;21032;-74
2022/03/21 09:06:57;;;;;;;0.60;0.10;;;;;;;;;;4986264;28;20840;-74
2022/03/21 09:09:25;;;;;;;0.60;0.10;;;10.50;99.90;;;;;;4985148;28;20958;-73
2022/03/21 09:11:55;;;;;;;0.60;0.10;;;10.60;99.90;;;;;;4983547;28;20459;-73
2022/03/21 09:14:24;;;;;;;0.60;0.10;;;10.70;99.90;;;;;;4982214;28;20469;-73
2022/03/21 09:16:52;;;;;;;0.60;0.10;;;10.80;99.90;;;;;;4999981;28;20545;-75
2022/03/21 09:19:22;;;;;;;0.60;0.10;;;10.80;99.90;;;;;;4985327;28;20446;-73
2022/03/21 09:21:51;;;;;;;0.60;0.10;;;;;;;;;;4976406;28;20489;-74
2022/03/21 09:24:19;;;;;;;0.60;0.10;;;11.00;99.90;;;;;;4973380;28;20538;-72
2022/03/21 09:26:47;;;;;;;0.60;0.10;;;11.10;99.90;;;;;;4990096;28;20535;-73
2022/03/21 09:29:15;;;;;;;0.60;0.10;;;11.00;99.90;;;;;;4991661;28;20455;-73
2022/03/21 09:31:46;;;;;;;0.60;0.10;;;11.10;99.90;;;;;;4987353;28;21114;-71
2022/03/21 09:34:16;;;;;;;0.60;0.10;;;11.30;99.90;;;;;;4988600;28;20442;-73
2022/03/21 09:36:44;;;;;;;0.60;0.10;;;11.40;99.90;;;;;;4992401;28;20469;-73
2022/03/21 09:41:56;;;;;;;0.60;0.10;;;11.40;99.90;;;;;;4993241;28;20452;-72
2022/03/21 09:44:25;;;;;;;0.60;0.10;;;11.60;99.90;;;;;;4993831;28;20550;-72
2022/03/21 09:46:55;;;;;;;0.60;0.10;;;11.70;99.90;;;;;;4994952;28;20874;-72
2022/03/21 09:49:30;;;;;;;1.60;1.50;;;11.80;99.90;;;;;;4988869;28;20461;-71
2022/03/21 09:51:59;;;;;;;0.60;0.10;;;11.90;99.90;;;;;;4991674;28;20465;-72
2022/03/21 09:54:27;;;;;;;0.60;0.20;;;11.90;99.90;;;;;;4986720;28;20452;-71
2022/03/21 09:56:55;;;;;;;0.60;0.10;;;12.00;99.90;;;;;;4995822;28;20461;-72
2022/03/21 09:59:24;;;;;;;0.60;0.10;;;12.10;99.90;;;;;;4994554;28;20448;-72
2022/03/21 10:01:53;;;;;;;0.60;0.10;;;12.20;99.90;;;;;;4989365;28;20468;-73
2022/03/21 10:04:21;;;;;;;0.60;0.10;;;12.20;99.90;;;;;;4995399;28;20441;-73
2022/03/21 10:06:59;;;;;;;0.60;0.10;;;12.30;99.90;;;;;;4979266;28;20528;-72
2022/03/21 10:09:27;;;;;;;0.60;0.10;;;12.40;99.90;;;;;;4974970;28;20452;-72
2022/03/21 10:11:56;;;;;;;0.60;0.10;;;12.50;99.90;;;;;;4976246;28;20458;-71
2022/03/21 10:14:32;;;;;;;0.60;0.20;;;12.50;99.90;;;;;;4974438;28;20450;-72
2022/03/21 10:17:03;;;;;;;0.60;0.10;;;12.60;99.90;;;;;;4975109;28;20497;-71
2022/03/21 10:19:46;;;;;;;0.60;0.20;;;12.60;99.90;;;;;;4974754;28;20487;-72
2022/03/21 10:22:15;;;;;;;0.60;0.10;;;12.80;99.90;;;;;;4986088;28;20470;-73
2022/03/21 10:24:45;;;;;;;0.60;0.10;;;13.00;99.90;;;;;;4976706;28;20455;-72
2022/03/21 10:27:29;;;;;;;3.03;2.73;;;13.00;99.90;;;;;;4971281;28;20486;-74
2022/03/21 10:30:01;;;;;;;0.60;0.10;;;13.00;99.90;;;;;;4972451;28;20449;-72
2022/03/21 10:32:40;;;;;;;0.60;0.10;;;13.00;99.90;;;;;;4978605;28;20518;-73
2022/03/21 10:35:13;;;;;;;0.60;0.10;;;13.10;99.90;;;;;;4986333;28;20473;-74
2022/03/21 10:37:46;;;;;;;4.93;4.43;;;13.20;99.90;;;;;;4992014;28;21040;-73
2022/03/21 10:40:24;;;;;;;0.60;0.10;;;13.30;99.90;;;;;;4976683;28;20449;-72
2022/03/21 10:42:56;;;;;;;0.70;0.53;;;13.50;99.90;;;;;;4970347;28;20969;-74
2022/03/21 10:45:25;;;;;;;0.60;0.10;;;13.60;99.90;;;;;;4991521;28;20870;-72
2022/03/21 10:47:55;;;;;;;11.10;10.60;;;;;;;;;;5012823;28;20461;-73
2022/03/21 10:50:36;;;;;;;0.60;0.10;;;13.80;99.90;;;;;;5012440;28;20472;-71
2022/03/21 10:53:10;;;;;;;0.60;0.10;;;14.00;99.90;;;;;;4997933;28;20467;-73
2022/03/21 10:55:39;;;;;;;0.67;0.37;;;13.90;99.90;;;;;;5007787;28;20598;-71
2022/03/21 10:58:12;;;;;;;0.60;0.10;;;14.00;99.90;;;;;;4999215;28;20518;-72
2022/03/21 11:00:40;;;;;;;0.60;0.10;;;14.00;99.90;;;;;;4990550;28;20504;-71
2022/03/21 11:03:14;;;;;;;0.60;0.10;;;14.00;99.90;;;;;;4988978;28;20444;-72
2022/03/21 11:05:43;;;;;;;0.60;0.10;;;14.00;99.90;;;;;;4991883;28;20482;-73
2022/03/21 11:08:13;;;;;;;0.60;0.10;;;14.20;99.90;;;;;;4991102;28;20475;-71
2022/03/21 11:10:43;;;;;;;0.60;0.20;;;14.30;99.90;;;;;;4992860;28;20540;-71
2022/03/21 11:13:14;;;;;;;0.60;0.10;;;14.30;99.90;;;;;;4982418;28;20444;-71
2022/03/21 11:15:43;;;;;;;0.70;0.40;;;14.40;99.90;;;;;;4984169;28;20506;-72
2022/03/21 11:18:15;;;;;;;0.60;0.10;;;14.40;99.90;;;;;;4982797;28;20975;-71
2022/03/21 11:20:44;;;;;;;0.60;0.10;;;14.50;99.90;;;;;;4983750;28;20444;-72
2022/03/21 11:23:15;;;;;;;0.60;0.30;;;14.60;99.90;;;;;;4987396;28;20859;-72
2022/03/21 11:25:52;;;;;;;0.60;0.10;;;14.70;99.90;;;;;;4999702;28;20444;-71
2022/03/21 11:28:53;;;;;;;0.60;0.20;;;14.70;99.90;;;;;;4996731;28;20467;-72
2022/03/21 11:31:43;;;;;;;0.60;0.10;;;14.80;99.90;;;;;;4980889;28;20500;-71
2022/03/21 11:34:39;;;;;;;0.60;0.10;;;14.80;99.90;;;;;;5002123;28;20472;-72
2022/03/21 11:40:30;;;;;;;0.60;0.10;;;15.00;99.90;;;;;;5110119;27;20610;-74
2022/03/21 11:43:26;;;;;;;0.60;0.10;;;15.20;99.90;;;;;;5111614;28;20472;-70
2022/03/21 11:45:57;;;;;;;0.60;0.20;;;15.20;99.90;;;;;;5109367;28;20462;-72
2022/03/21 11:48:39;;;;;;;0.60;0.20;;;15.20;99.90;;;;;;5102951;28;20440;-71
2022/03/21 11:51:24;;;;;;;0.60;0.20;;;15.30;99.90;;;;;;5099293;28;20439;-71
2022/03/21 11:53:54;;;;;;;0.70;0.53;;;15.20;99.90;;;;;;5097739;28;20430;-71
2022/03/21 11:56:56;;;;;;;0.60;0.20;;;16.90;99.90;;;;;;5097331;28;20484;-72
2022/03/21 11:59:47;;;;;;;0.60;0.10;;;15.40;99.90;;;;;;5098424;28;20583;-72
2022/03/21 12:02:53;;;;;;;0.60;0.10;;;15.50;99.90;;;;;;5106286;28;20948;-71
2022/03/21 12:05:51;;;;;;;0.60;0.10;;;15.60;99.90;;;;;;5106834;28;20444;-71
2022/03/21 12:08:48;;;;;;;0.60;0.10;;;15.80;99.90;;;;;;5104365;28;20508;-72
2022/03/21 12:12:05;;;;;;;1.80;1.70;;;15.80;99.90;;;;;;5107206;28;20464;-73
2022/03/21 12:14:41;;;;;;;0.60;0.10;;;15.80;99.90;;;;;;5095701;28;20451;-71
2022/03/21 12:17:36;;;;;;;3.40;3.10;;;16.00;99.90;;;;;;5106610;28;21076;-71
2022/03/21 12:20:11;;;;;;;0.60;0.10;;;16.10;99.90;;;;;;5105002;28;20487;-72
2022/03/21 12:23:19;;;;;;;0.60;0.10;;;16.20;99.90;;;;;;5108570;28;20441;-72
2022/03/21 12:25:51;;;;;;;0.60;0.10;;;16.20;99.90;;;;;;5102382;28;20544;-72
2022/03/21 12:29:31;;;;;;;0.80;0.60;;;;;;;;;;5107264;28;20440;-72
2022/03/21 12:31:32;;;;;;;0.60;0.20;;;16.30;99.90;;;;;;5107795;27;20529;-72
2022/03/21 12:34:37;;;;;;;0.60;0.10;;;16.40;99.90;;;;;;5107931;28;20439;-73
2022/03/21 12:37:10;;;;;;;1.23;1.23;;;16.30;99.90;;;;;;5102795;28;20467;-71
2022/03/21 12:39:39;;;;;;;0.60;0.30;;;16.30;99.90;;;;;;5103082;28;20475;-72
2022/03/21 12:42:18;;;;;;;0.60;0.13;;;16.30;99.90;;;;;;5106114;28;20984;-74
2022/03/21 12:44:46;;;;;;;0.60;0.10;;;16.30;99.90;;;;;;5100559;28;20451;-73
2022/03/21 12:47:24;;;;;;;0.87;0.60;;;16.40;99.90;;;;;;5106236;28;20992;-72
2022/03/21 12:49:53;;;;;;;0.60;0.20;;;16.50;99.90;;;;;;5103600;28;20947;-73
2022/03/21 12:52:28;;;;;;;0.60;0.10;;;16.50;99.90;;;;;;5092779;28;20453;-74
2022/03/21 12:54:56;;;;;;;0.60;0.10;;;16.60;99.90;;;;;;5082370;28;20534;-72
2022/03/21 12:57:25;;;;;;;6.33;5.30;;;16.60;99.90;;;;;;5091621;28;20456;-72
2022/03/21 12:59:53;;;;;;;0.70;0.57;;;16.60;99.90;;;;;;5088507;28;20472;-73
2022/03/21 13:02:26;;;;;;;0.60;0.10;;;16.80;99.90;;;;;;5091052;28;20458;-73
2022/03/21 13:10:33;;;;;;;0.60;0.10;;;17.00;99.90;;;;;;5088939;28;20440;-73
2022/03/21 13:13:04;;;;;;;0.60;0.10;;;17.00;99.90;;;;;;5092293;28;21193;-73
2022/03/21 13:15:35;;;;;;;0.60;0.10;;;17.10;99.90;;;;;;5092924;28;20862;-73
2022/03/21 13:18:05;;;;;;;0.60;0.10;;;17.10;99.90;;;;;;5093161;28;20570;-72
2022/03/21 13:20:40;;;;;;;0.60;0.30;;;17.10;99.90;;;;;;5093153;28;20478;-72
2022/03/21 13:23:08;;;;;;;0.60;0.10;;;17.00;99.90;;;;;;5089655;28;20543;-73
2022/03/21 13:25:42;;;;;;;0.60;0.10;;;17.00;99.90;;;;;;5091191;28;20464;-71
2022/03/21 13:28:13;;;;;;;0.60;0.30;;;16.90;99.90;;;;;;5086456;28;20480;-71
2022/03/21 13:30:56;;;;;;;0.60;0.10;;;16.90;99.90;;;;;;5091584;28;20536;-71
2022/03/21 13:33:28;;;;;;;0.60;0.20;;;16.80;99.90;;;;;;5093303;28;20496;-72
2022/03/21 13:36:02;;;;;;;0.60;0.10;;;16.70;99.90;;;;;;5090609;28;20457;-72
2022/03/21 13:38:31;;;;;;;0.60;0.10;;;16.70;99.90;;;;;;5073552;28;20464;-73
2022/03/21 13:41:14;;;;;;;0.60;0.10;;;16.70;99.90;;;;;;5084481;28;20435;-73
2022/03/21 13:43:43;;;;;;;0.60;0.10;;;16.70;99.90;;;;;;5092782;28;20437;-74
2022/03/21 13:46:14;;;;;;;0.60;0.10;;;16.70;99.90;;;;;;5089797;28;20463;-74
2022/03/21 13:48:44;;;;;;;0.60;0.10;;;16.70;99.90;;;;;;5095328;28;20432;-73